createdAt,value
2022-12-13T00:01:14.738Z,29.9
2022-12-13T00:06:54.285Z,29.9
2022-12-13T00:12:32.234Z,29.8
2022-12-13T00:18:10.735Z,29.8
2022-12-13T00:23:48.398Z,29.8
2022-12-13T00:29:32.840Z,29.8
2022-12-13T00:35:53.805Z,29.8
2022-12-13T00:41:15.876Z,29.7
2022-12-13T00:46:54.937Z,29.6
2022-12-13T00:52:32.977Z,29.6
2022-12-13T00:58:10.436Z,29.6
2022-12-13T01:03:39.787Z,29.6
2022-12-13T01:09:55.367Z,29.6
2022-12-13T01:15:33.810Z,29.5
2022-12-13T01:21:11.673Z,29.5
2022-12-13T01:26:36.470Z,29.4
2022-12-13T01:32:18.631Z,29.4
2022-12-13T01:38:15.535Z,29.4
2022-12-13T01:44:37.434Z,29.4
2022-12-13T01:50:25.965Z,29.3
2022-12-13T01:56:16.713Z,29.3
2022-12-13T02:01:47.002Z,29.3
2022-12-13T02:07:06.293Z,30
2022-12-13T02:12:49.548Z,30
2022-12-13T02:18:35.466Z,31.8
2022-12-13T02:24:25.609Z,32.6
2022-12-13T02:30:37.396Z,33.6
2022-12-13T02:36:16.039Z,34.4
2022-12-13T02:41:51.225Z,35.1
2022-12-13T02:48:11.891Z,35.9
2022-12-13T02:53:51.440Z,36.7
2022-12-13T02:59:19.431Z,37.4
2022-12-13T03:04:59.095Z,38.1
2022-12-13T03:10:23.743Z,38.8
2022-12-13T03:16:03.735Z,39.4
2022-12-13T03:21:28.916Z,40.1
2022-12-13T03:27:11.160Z,40.7
2022-12-13T03:32:50.403Z,41.4
2022-12-13T03:39:12.378Z,41.5
2022-12-13T03:44:50.827Z,41.6
2022-12-13T03:51:00.232Z,41.6
2022-12-13T03:56:40.936Z,41.6
2022-12-13T04:02:16.434Z,41.6
2022-12-13T04:08:54.936Z,41.6
2022-12-13T04:14:43.732Z,41.6
2022-12-13T04:20:13.232Z,41.6
2022-12-13T04:25:56.021Z,41.6
2022-12-13T04:37:05.171Z,41.6
2022-12-13T04:42:08.057Z,41.5
2022-12-13T04:47:54.220Z,41.5
2022-12-13T04:52:55.943Z,41.5
2022-12-13T04:58:57.091Z,41.4
2022-12-13T05:04:36.215Z,41.4
2022-12-13T05:10:01.038Z,41.4
2022-12-13T05:16:28.105Z,41.3
2022-12-13T05:21:52.505Z,41.3
2022-12-13T05:27:58.324Z,41.3
2022-12-13T05:33:37.139Z,41.1
2022-12-13T05:39:45.786Z,41.1
2022-12-13T05:45:23.511Z,41
2022-12-13T05:50:46.066Z,40.9
2022-12-13T05:56:28.542Z,40.8
2022-12-13T06:02:38.176Z,40.7
2022-12-13T06:08:40.553Z,40.6
2022-12-13T06:16:22.297Z,40.5
2022-12-13T06:22:16.793Z,40.4
2022-12-13T06:27:34.365Z,40.4
2022-12-13T06:33:40.809Z,40.4
2022-12-13T06:39:53.632Z,40.3
2022-12-13T06:45:31.516Z,40.1
2022-12-13T06:51:32.713Z,40.1
2022-12-13T06:57:18.902Z,39.9
2022-12-13T07:03:32.265Z,39.9
2022-12-13T07:09:45.223Z,39.8
2022-12-13T07:15:33.193Z,39.6
2022-12-13T07:21:23.361Z,39.6
2022-12-13T07:27:23.680Z,39.4
2022-12-13T07:33:24.438Z,39.4
2022-12-13T07:39:24.320Z,39.3
2022-12-13T07:45:10.531Z,39.2
2022-12-13T07:51:13.803Z,39.1
2022-12-13T07:57:17.666Z,39
2022-12-13T08:02:59.592Z,38.9
2022-12-13T08:09:07.776Z,38.8
2022-12-13T08:14:34.920Z,38.8
2022-12-13T08:20:43.733Z,38.6
2022-12-13T08:27:23.330Z,38.6
2022-12-13T08:33:21.788Z,38.5
2022-12-13T08:39:00.545Z,38.4
2022-12-13T08:44:48.855Z,38.3
2022-12-13T08:50:40.379Z,38.3
2022-12-13T08:56:38.277Z,38.2
2022-12-13T09:02:21.545Z,38.1
2022-12-13T09:08:40.778Z,38
2022-12-13T09:15:39.850Z,38.8
2022-12-13T09:22:50.513Z,48.4
2022-12-13T09:29:28.236Z,45.2
2022-12-13T09:35:25.303Z,45.9
2022-12-13T09:41:40.591Z,48.3
2022-12-13T09:49:35.013Z,52.2
2022-12-13T09:56:43.597Z,52.2
2022-12-13T10:02:46.090Z,52.8
2022-12-13T10:08:36.741Z,53.4
2022-12-13T10:14:22.656Z,53.9
2022-12-13T10:20:35.193Z,54.5
2022-12-13T10:27:47.106Z,55.2
2022-12-13T10:33:44.084Z,55.7
2022-12-13T10:39:22.094Z,55.9
2022-12-13T10:45:04.655Z,56
2022-12-13T10:51:05.224Z,56.4
2022-12-13T10:57:29.791Z,56.2
2022-12-13T11:03:25.252Z,57.1
2022-12-13T11:09:06.831Z,57.5
2022-12-13T11:15:22.988Z,57.8
2022-12-13T11:21:10.614Z,58
2022-12-13T11:26:57.590Z,58.3
2022-12-13T11:32:59.449Z,58.5
2022-12-13T11:38:38.053Z,58.7
2022-12-13T11:44:03.583Z,58.8
2022-12-13T11:49:53.321Z,58.9
2022-12-13T11:55:30.254Z,59.1
2022-12-13T12:02:21.788Z,59.2
2022-12-13T12:09:10.189Z,59.3
2022-12-13T12:14:41.413Z,59.3
2022-12-13T12:20:57.315Z,59.3
2022-12-13T12:27:12.187Z,59.2
2022-12-13T12:33:14.458Z,59.1
2022-12-13T12:38:59.190Z,58.9
2022-12-13T12:53:35.028Z,57.7
2022-12-13T12:59:24.112Z,57.3
2022-12-13T13:05:28.967Z,56.9
2022-12-13T13:12:28.714Z,56.5
2022-12-13T13:18:21.507Z,56.1
2022-12-13T13:25:04.769Z,54.1
2022-12-13T13:31:24.190Z,51.2
2022-12-13T13:37:22.508Z,49.4
2022-12-13T13:43:00.364Z,48.4
2022-12-13T13:48:47.925Z,47.6
2022-12-13T13:54:59.381Z,46.9
2022-12-13T14:01:00.872Z,46.3
2022-12-13T14:06:38.075Z,45.8
2022-12-13T14:12:34.915Z,45.4
2022-12-13T14:18:38.364Z,44.9
2022-12-13T14:24:03.077Z,44.6
2022-12-13T14:29:34.733Z,44.3
2022-12-13T14:36:31.986Z,43.9
2022-12-13T14:42:17.097Z,43.5
2022-12-13T14:48:10.336Z,43.2
2022-12-13T14:54:05.606Z,42.9
2022-12-13T14:59:53.478Z,42.6
2022-12-13T15:05:50.279Z,42.3
2022-12-13T15:11:42.973Z,42.1
2022-12-13T15:17:52.255Z,41.8
2022-12-13T15:23:25.322Z,41.6
2022-12-13T15:29:27.739Z,41.3
2022-12-13T15:35:34.421Z,41.2
2022-12-13T15:41:27.607Z,40.9
2022-12-13T15:47:28.035Z,40.8
2022-12-13T15:53:09.852Z,40.6
2022-12-13T15:58:59.929Z,40.4
2022-12-13T16:04:32.347Z,40.3
2022-12-13T16:10:26.798Z,40.2
2022-12-13T16:16:26.508Z,40.1
2022-12-13T16:22:25.513Z,39.9
2022-12-13T16:28:31.038Z,39.8
2022-12-13T16:34:51.219Z,39.6
2022-12-13T16:41:00.312Z,39.6
2022-12-13T16:48:34.465Z,39.4
2022-12-13T16:54:08.118Z,39.3
2022-12-13T16:59:40.867Z,39.2
2022-12-13T17:05:26.114Z,39.1
2022-12-13T17:11:17.949Z,39
2022-12-13T17:17:05.767Z,39
2022-12-13T17:22:53.852Z,38.8
2022-12-13T17:28:35.413Z,38.8
2022-12-13T17:34:09.795Z,38.6
2022-12-13T17:39:50.816Z,38.6
2022-12-13T17:45:31.059Z,38.5
2022-12-13T17:51:11.024Z,38.4
2022-12-13T17:56:42.348Z,38.4
2022-12-13T18:02:21.716Z,38.3
2022-12-13T18:07:32.228Z,38.3
2022-12-13T18:13:55.091Z,36.8
2022-12-13T18:20:34.158Z,29.4
2022-12-13T18:26:09.298Z,26.1
2022-12-13T18:31:51.304Z,24.9
2022-12-13T18:37:29.178Z,24
2022-12-13T18:43:18.738Z,23.4
2022-12-13T18:48:45.081Z,22.9
2022-12-13T18:54:15.435Z,22.6
2022-12-13T18:59:54.155Z,22.4
2022-12-13T19:05:45.181Z,22.1
2022-12-13T19:11:01.115Z,21.9
2022-12-13T19:16:35.034Z,21.8
2022-12-13T19:27:51.282Z,21.6
2022-12-13T19:33:29.945Z,21.5
2022-12-13T19:38:58.849Z,21.4
2022-12-13T19:44:42.461Z,21.3
2022-12-13T19:50:21.471Z,21.3
2022-12-13T19:56:00.336Z,21.2
2022-12-13T20:06:51.817Z,21
2022-12-13T20:12:15.059Z,20.9
2022-12-13T20:18:01.517Z,21.2
2022-12-13T20:23:55.576Z,22.4
2022-12-13T20:29:22.699Z,24.2
2022-12-13T20:34:49.130Z,26.3
2022-12-13T20:41:03.108Z,28.5
2022-12-13T20:46:26.765Z,30.5
2022-12-13T20:51:55.045Z,32.4
2022-12-13T20:57:28.521Z,34.4
2022-12-13T21:02:56.734Z,36.3
2022-12-13T21:08:37.821Z,37.6
2022-12-13T21:14:09.044Z,38.6
2022-12-13T21:19:56.383Z,39
2022-12-13T21:25:34.557Z,39.2
2022-12-13T21:31:17.143Z,39.3
2022-12-13T21:36:55.505Z,39.3
2022-12-13T21:42:36.590Z,39.4
2022-12-13T21:49:05.503Z,39.4
2022-12-13T21:54:45.424Z,39.4
2022-12-13T22:00:44.180Z,39.4
2022-12-13T22:06:07.123Z,39.3
2022-12-13T22:11:35.833Z,39.3
2022-12-13T22:17:14.157Z,39.3
2022-12-13T22:22:57.982Z,39.3
2022-12-13T22:28:24.563Z,39.3
2022-12-13T22:34:02.679Z,39.2
2022-12-13T22:39:27.621Z,39.1
2022-12-13T22:45:05.904Z,39.1
2022-12-13T22:50:43.786Z,39.1
2022-12-13T22:56:10.788Z,39
2022-12-13T23:01:49.937Z,39
2022-12-13T23:07:28.702Z,38.9
2022-12-13T23:12:27.002Z,38.9
2022-12-13T23:18:05.130Z,38.8
2022-12-13T23:24:29.122Z,38.7
2022-12-13T23:29:51.473Z,38.6
2022-12-13T23:35:29.727Z,38.6
2022-12-13T23:40:42.681Z,38.5
2022-12-13T23:46:24.932Z,38.5
2022-12-13T23:52:10.488Z,38.4
2022-12-13T23:57:47.916Z,38.4
